GQPA/ATR METAR and TAF weather

Enter ICAO airport designator
Station Type Date Time Source
GQPA METAR 2019/08/22 09:00 UTC NOAA

GQPA 220900Z 18008KT 8000 NSC 30/13 Q1013


Station Type Date Time Source
GQPA Decoded METAR 2019/08/22 09:00 UTC NOAA

Station name not available
Aug 22, 2019 - 05:00 AM EDT / 2019.08.22 0900 UTC
Wind: from the S (180 degrees) at 9 MPH (8 KT):0
Visibility: 4 mile(s):0
Temperature: 86 F (30 C)
Dew Point: 55 F (13 C)
Relative Humidity: 35%
Pressure (altimeter): 29.91 in. Hg (1013 hPa)
ob: GQPA 220900Z 18008KT 8000 NSC 30/13 Q1013
cycle: 9

Station Type Date Time Source
GQPA TAF UTC NOAA

Error!

Example: see airport list